createdAt,value
2017-12-14T00:00:37.598Z,0
2017-12-14T00:01:38.155Z,0
2017-12-14T00:02:37.568Z,0
2017-12-14T00:03:37.559Z,0
2017-12-14T00:04:37.557Z,0
2017-12-14T00:05:38.345Z,0
2017-12-14T00:06:37.498Z,0
2017-12-14T00:07:37.479Z,0
2017-12-14T00:08:37.731Z,0
2017-12-14T00:09:37.991Z,0
2017-12-14T00:10:37.696Z,0
2017-12-14T00:11:37.404Z,0
2017-12-14T00:12:37.668Z,0
2017-12-14T00:13:37.372Z,0
2017-12-14T00:14:37.630Z,0
2017-12-14T00:15:37.894Z,0
2017-12-14T00:16:37.327Z,0
2017-12-14T00:17:37.318Z,0
2017-12-14T00:18:37.307Z,0
2017-12-14T00:19:37.569Z,0
2017-12-14T00:20:37.524Z,0
2017-12-14T00:21:37.237Z,0
2017-12-14T00:22:37.228Z,0
2017-12-14T00:23:37.474Z,0
2017-12-14T00:24:37.769Z,0
2017-12-14T00:25:37.718Z,0
2017-12-14T00:26:37.147Z,0
2017-12-14T00:27:37.410Z,0
2017-12-14T00:28:37.671Z,0
2017-12-14T00:29:37.098Z,0
2017-12-14T00:30:37.354Z,0
2017-12-14T00:31:37.615Z,0
2017-12-14T00:32:37.336Z,0
2017-12-14T00:33:37.347Z,0
2017-12-14T00:34:37.320Z,0
2017-12-14T00:35:37.559Z,0
2017-12-14T00:36:36.975Z,0
2017-12-14T00:37:37.037Z,0
2017-12-14T00:38:37.231Z,0
2017-12-14T00:39:36.917Z,0
2017-12-14T00:40:37.446Z,0
2017-12-14T00:41:36.902Z,0
2017-12-14T00:42:37.141Z,0
2017-12-14T00:43:36.896Z,0
2017-12-14T00:44:37.111Z,0
2017-12-14T00:45:36.820Z,0
2017-12-14T00:46:37.076Z,0
2017-12-14T00:47:36.794Z,0
2017-12-14T00:48:36.767Z,0
2017-12-14T00:49:36.749Z,0
2017-12-14T00:50:37.025Z,0
2017-12-14T00:51:36.712Z,0
2017-12-14T00:52:36.696Z,0
2017-12-14T00:53:37.216Z,0
2017-12-14T00:54:36.661Z,0
2017-12-14T00:55:36.645Z,0
2017-12-14T00:56:36.656Z,0
2017-12-14T00:57:36.886Z,0
2017-12-14T00:58:36.883Z,0
2017-12-14T00:59:36.872Z,0
2017-12-14T01:00:36.582Z,0
2017-12-14T01:01:36.545Z,0
2017-12-14T01:02:36.804Z,0
2017-12-14T01:03:37.338Z,0
2017-12-14T01:04:37.031Z,0
2017-12-14T01:05:36.763Z,0
2017-12-14T01:06:36.467Z,0
2017-12-14T01:07:36.987Z,0
2017-12-14T01:08:36.982Z,0
2017-12-14T01:09:36.680Z,0
2017-12-14T01:10:36.697Z,0
2017-12-14T01:11:36.672Z,0
2017-12-14T01:12:36.627Z,0
2017-12-14T01:13:37.280Z,0
2017-12-14T01:14:36.603Z,0
2017-12-14T01:15:36.613Z,0
2017-12-14T01:16:36.562Z,0
2017-12-14T01:17:36.550Z,0
2017-12-14T01:18:36.808Z,0
2017-12-14T01:19:36.503Z,0
2017-12-14T01:20:36.491Z,0
2017-12-14T01:21:36.469Z,0
2017-12-14T01:22:36.448Z,0
2017-12-14T01:23:36.457Z,0
2017-12-14T01:24:36.415Z,0
2017-12-14T01:25:36.128Z,0
2017-12-14T01:26:36.104Z,0
2017-12-14T01:27:36.362Z,0
2017-12-14T01:28:36.350Z,0
2017-12-14T01:29:36.350Z,0
2017-12-14T01:30:36.587Z,0
2017-12-14T01:31:36.021Z,0
2017-12-14T01:32:36.004Z,0
2017-12-14T01:33:36.260Z,0
2017-12-14T01:34:35.970Z,0
2017-12-14T01:35:36.501Z,0
2017-12-14T01:36:36.489Z,0
2017-12-14T01:37:36.463Z,0
2017-12-14T01:38:36.714Z,0
2017-12-14T01:39:35.897Z,0
2017-12-14T01:40:35.861Z,0
2017-12-14T01:41:35.850Z,0
2017-12-14T01:42:35.828Z,0
2017-12-14T01:43:36.085Z,0
2017-12-14T01:44:35.824Z,0
2017-12-14T01:45:36.603Z,0
2017-12-14T01:46:36.304Z,0
2017-12-14T01:47:36.304Z,0
2017-12-14T01:48:35.729Z,0
2017-12-14T01:49:36.262Z,0
2017-12-14T01:50:35.710Z,0
2017-12-14T01:51:36.232Z,0
2017-12-14T01:52:35.926Z,0
2017-12-14T01:53:35.655Z,0
2017-12-14T01:54:35.629Z,0
2017-12-14T01:55:36.180Z,0
2017-12-14T01:56:35.866Z,0
2017-12-14T01:57:35.580Z,0
2017-12-14T01:58:35.826Z,0
2017-12-14T01:59:36.102Z,0
2017-12-14T02:00:35.812Z,0
2017-12-14T02:01:35.521Z,0
2017-12-14T02:02:35.775Z,0
2017-12-14T02:03:35.471Z,0
2017-12-14T02:04:35.719Z,0
2017-12-14T02:05:35.713Z,0
2017-12-14T02:06:35.964Z,0
2017-12-14T02:07:35.709Z,0
2017-12-14T02:08:35.653Z,0
2017-12-14T02:09:35.907Z,0
2017-12-14T02:10:35.356Z,0
2017-12-14T02:11:35.589Z,0
2017-12-14T02:12:36.322Z,0
2017-12-14T02:13:35.670Z,0
2017-12-14T02:14:35.818Z,0
2017-12-14T02:15:35.524Z,0
2017-12-14T02:16:35.791Z,0
2017-12-14T02:17:35.226Z,0
2017-12-14T02:18:35.472Z,0
2017-12-14T02:19:35.472Z,0
2017-12-14T02:20:35.171Z,0
2017-12-14T02:21:35.436Z,0
2017-12-14T02:22:35.680Z,0
2017-12-14T02:23:35.117Z,0
2017-12-14T02:24:35.369Z,0
2017-12-14T02:25:35.354Z,0
2017-12-14T02:26:35.335Z,0
2017-12-14T02:27:35.316Z,0
2017-12-14T02:28:35.027Z,0
2017-12-14T02:29:35.029Z,0
2017-12-14T02:30:35.283Z,0
2017-12-14T02:31:35.255Z,0
2017-12-14T02:32:35.244Z,0
2017-12-14T02:33:34.941Z,0
2017-12-14T02:34:35.752Z,0
2017-12-14T02:35:35.738Z,0
2017-12-14T02:36:35.164Z,0
2017-12-14T02:37:35.147Z,0
2017-12-14T02:38:35.152Z,0
2017-12-14T02:39:34.839Z,0
2017-12-14T02:40:35.365Z,0
2017-12-14T02:41:35.359Z,0
2017-12-14T02:42:35.098Z,0
2017-12-14T02:43:35.091Z,0
2017-12-14T02:44:35.030Z,0
2017-12-14T02:45:35.293Z,0
2017-12-14T02:46:34.717Z,0
2017-12-14T02:47:34.989Z,0
2017-12-14T02:48:34.697Z,0
2017-12-14T02:49:34.946Z,0
2017-12-14T02:50:34.926Z,0
2017-12-14T02:51:34.942Z,0
2017-12-14T02:52:34.893Z,0
2017-12-14T02:53:34.874Z,0
2017-12-14T02:54:35.474Z,0
2017-12-14T02:55:34.837Z,0
2017-12-14T02:56:34.825Z,0
2017-12-14T02:57:34.546Z,0
2017-12-14T02:58:34.783Z,0
2017-12-14T02:59:35.052Z,0
2017-12-14T03:00:34.494Z,0
2017-12-14T03:01:35.282Z,0
2017-12-14T03:02:34.740Z,0
2017-12-14T03:03:34.707Z,0
2017-12-14T03:04:34.684Z,0
2017-12-14T03:05:34.399Z,0
2017-12-14T03:06:34.683Z,0
2017-12-14T03:07:34.903Z,0
2017-12-14T03:08:34.901Z,0
2017-12-14T03:09:34.622Z,0
2017-12-14T03:10:34.622Z,0
2017-12-14T03:11:34.568Z,0
2017-12-14T03:12:34.572Z,0
2017-12-14T03:13:34.801Z,0
2017-12-14T03:14:34.515Z,0
2017-12-14T03:15:34.495Z,0
2017-12-14T03:16:34.218Z,0
2017-12-14T03:17:34.235Z,0
2017-12-14T03:18:34.185Z,0
2017-12-14T03:19:34.158Z,0
2017-12-14T03:20:34.413Z,0
2017-12-14T03:21:34.139Z,0
2017-12-14T03:22:34.388Z,0
2017-12-14T03:23:34.115Z,0
2017-12-14T03:24:34.095Z,0
2017-12-14T03:25:34.341Z,0
2017-12-14T03:26:34.308Z,0
2017-12-14T03:27:34.025Z,0
2017-12-14T03:28:34.294Z,0
2017-12-14T03:29:34.532Z,0
2017-12-14T03:30:34.536Z,0
2017-12-14T03:31:34.228Z,0
2017-12-14T03:32:34.213Z,0
2017-12-14T03:33:34.213Z,0
2017-12-14T03:34:34.181Z,0
2017-12-14T03:35:34.155Z,0
2017-12-14T03:36:34.152Z,0
2017-12-14T03:37:33.869Z,0
2017-12-14T03:38:33.953Z,0
2017-12-14T03:39:34.708Z,0
2017-12-14T03:40:33.804Z,0
2017-12-14T03:41:34.342Z,0
2017-12-14T03:42:48.900Z,0
2017-12-14T03:43:34.572Z,0
2017-12-14T03:44:34.289Z,0
2017-12-14T03:45:33.989Z,0
2017-12-14T03:46:33.990Z,0
2017-12-14T03:47:34.229Z,0
2017-12-14T03:48:33.957Z,0
2017-12-14T03:49:34.350Z,0
2017-12-14T03:50:33.638Z,0
2017-12-14T03:51:33.887Z,0
2017-12-14T03:52:33.872Z,0
2017-12-14T03:53:34.137Z,0
2017-12-14T03:54:33.589Z,0
2017-12-14T03:55:34.106Z,0
2017-12-14T03:56:33.546Z,0
2017-12-14T03:57:33.519Z,0
2017-12-14T03:58:33.511Z,0
2017-12-14T03:59:33.755Z,0
2017-12-14T04:00:33.738Z,0
2017-12-14T04:01:33.460Z,0
2017-12-14T04:02:33.431Z,0
2017-12-14T04:03:33.963Z,0
2017-12-14T04:04:33.943Z,0
2017-12-14T04:05:33.650Z,0
2017-12-14T04:06:34.400Z,0
2017-12-14T04:07:33.888Z,0
2017-12-14T04:08:33.595Z,0
2017-12-14T04:09:33.584Z,0
2017-12-14T04:10:33.588Z,0
2017-12-14T04:11:33.561Z,0
2017-12-14T04:12:33.551Z,0
2017-12-14T04:13:33.796Z,0
2017-12-14T04:14:33.251Z,0
2017-12-14T04:15:33.487Z,0
2017-12-14T04:16:33.471Z,0
2017-12-14T04:17:33.480Z,0
2017-12-14T04:18:33.485Z,0
2017-12-14T04:19:33.147Z,0
2017-12-14T04:20:33.753Z,0
2017-12-14T04:21:33.400Z,0
2017-12-14T04:22:33.388Z,0
2017-12-14T04:23:33.088Z,0
2017-12-14T04:24:33.353Z,0
2017-12-14T04:25:33.312Z,0
2017-12-14T04:26:33.571Z,0
2017-12-14T04:27:33.033Z,0
2017-12-14T04:28:33.002Z,0
2017-12-14T04:29:32.983Z,0
2017-12-14T04:30:33.256Z,0
2017-12-14T04:31:32.962Z,0
2017-12-14T04:32:33.483Z,0
2017-12-14T04:33:33.474Z,0
2017-12-14T04:34:33.167Z,0
2017-12-14T04:35:33.291Z,0
2017-12-14T04:36:33.141Z,0
2017-12-14T04:37:33.142Z,0
2017-12-14T04:38:33.388Z,0
2017-12-14T04:39:33.095Z,0
2017-12-14T04:40:33.081Z,0
2017-12-14T04:41:33.054Z,0
2017-12-14T04:42:33.067Z,0
2017-12-14T04:43:33.296Z,0
2017-12-14T04:44:33.012Z,0
2017-12-14T04:45:33.258Z,0
2017-12-14T04:46:33.247Z,0
2017-12-14T04:47:32.970Z,0
2017-12-14T04:48:32.946Z,0
2017-12-14T04:49:32.929Z,0
2017-12-14T04:50:32.649Z,0
2017-12-14T04:51:32.631Z,0
2017-12-14T04:52:33.175Z,0
2017-12-14T04:53:32.854Z,0
2017-12-14T04:54:32.562Z,0
2017-12-14T04:55:32.835Z,0
2017-12-14T04:56:32.532Z,0
2017-12-14T04:57:32.795Z,0
2017-12-14T04:58:32.499Z,0
2017-12-14T04:59:32.478Z,0
2017-12-14T05:00:32.740Z,0
2017-12-14T05:01:32.447Z,0
2017-12-14T05:02:32.431Z,0
2017-12-14T05:03:32.693Z,0
2017-12-14T05:04:32.970Z,0
2017-12-14T05:05:32.381Z,0
2017-12-14T05:06:33.196Z,0
2017-12-14T05:07:32.359Z,0
2017-12-14T05:08:32.867Z,0
2017-12-14T05:09:32.866Z,0
2017-12-14T05:10:32.343Z,0
2017-12-14T05:11:32.279Z,0
2017-12-14T05:12:32.885Z,0
2017-12-14T05:13:32.242Z,0
2017-12-14T05:14:32.528Z,0
2017-12-14T05:15:33.054Z,0
2017-12-14T05:16:32.469Z,0
2017-12-14T05:17:32.995Z,0
2017-12-14T05:18:32.738Z,0
2017-12-14T05:19:32.428Z,0
2017-12-14T05:20:32.681Z,0
2017-12-14T05:21:32.407Z,0
2017-12-14T05:22:32.379Z,0
2017-12-14T05:23:32.078Z,0
2017-12-14T05:24:32.345Z,0
2017-12-14T05:25:32.312Z,0
2017-12-14T05:26:32.299Z,0
2017-12-14T05:27:32.280Z,0
2017-12-14T05:28:32.259Z,0
2017-12-14T05:29:32.526Z,0
2017-12-14T05:30:32.772Z,0
2017-12-14T05:31:32.226Z,0
2017-12-14T05:32:32.203Z,0
2017-12-14T05:33:32.225Z,0
2017-12-14T05:34:32.189Z,0
2017-12-14T05:35:32.418Z,0
2017-12-14T05:36:32.402Z,0
2017-12-14T05:37:32.115Z,0
2017-12-14T05:38:32.379Z,0
2017-12-14T05:39:32.083Z,0
2017-12-14T05:40:32.064Z,0
2017-12-14T05:41:31.782Z,0
2017-12-14T05:42:31.761Z,0
2017-12-14T05:43:32.040Z,0
2017-12-14T05:44:32.292Z,0
2017-12-14T05:45:32.266Z,0
2017-12-14T05:46:32.275Z,0
2017-12-14T05:47:31.685Z,0
2017-12-14T05:48:32.260Z,0
2017-12-14T05:49:31.922Z,0
2017-12-14T05:50:31.901Z,0
2017-12-14T05:51:32.157Z,0
2017-12-14T05:52:31.614Z,0
2017-12-14T05:53:31.856Z,0
2017-12-14T05:54:31.826Z,0
2017-12-14T05:55:31.812Z,0
2017-12-14T05:56:31.803Z,0
2017-12-14T05:57:32.082Z,0
2017-12-14T05:58:31.500Z,0
2017-12-14T05:59:31.746Z,0
2017-12-14T06:00:32.274Z,0
2017-12-14T06:01:31.737Z,0
2017-12-14T06:02:31.970Z,0
2017-12-14T06:03:31.680Z,0
2017-12-14T06:04:31.664Z,0
2017-12-14T06:05:31.659Z,0
2017-12-14T06:06:31.907Z,0
2017-12-14T06:07:32.178Z,0
2017-12-14T06:08:31.328Z,0
2017-12-14T06:09:31.328Z,0
2017-12-14T06:10:31.590Z,0
2017-12-14T06:11:31.295Z,0
2017-12-14T06:12:31.258Z,0
2017-12-14T06:13:31.835Z,0
2017-12-14T06:14:31.233Z,0
2017-12-14T06:15:31.209Z,0
2017-12-14T06:16:31.201Z,0
2017-12-14T06:17:31.178Z,0
2017-12-14T06:18:31.445Z,0
2017-12-14T06:19:31.785Z,0
2017-12-14T06:20:31.396Z,0
2017-12-14T06:21:31.387Z,0
2017-12-14T06:22:31.638Z,0
2017-12-14T06:23:31.897Z,0
2017-12-14T06:24:31.331Z,0
2017-12-14T06:25:31.311Z,0
2017-12-14T06:26:31.027Z,0
2017-12-14T06:27:31.549Z,0
2017-12-14T06:28:31.023Z,0
2017-12-14T06:29:31.510Z,0
2017-12-14T06:30:31.240Z,0
2017-12-14T06:31:31.487Z,0
2017-12-14T06:32:31.208Z,0
2017-12-14T06:33:30.918Z,0
2017-12-14T06:34:30.891Z,0
2017-12-14T06:35:30.867Z,0
2017-12-14T06:36:31.121Z,0
2017-12-14T06:37:31.138Z,0
2017-12-14T06:38:31.099Z,0
2017-12-14T06:39:31.072Z,0
2017-12-14T06:40:31.068Z,4
2017-12-14T06:41:31.041Z,4
2017-12-14T06:42:31.300Z,4
2017-12-14T06:43:31.004Z,8
2017-12-14T06:44:31.291Z,8
2017-12-14T06:45:30.716Z,12
2017-12-14T06:46:30.681Z,16
2017-12-14T06:47:30.684Z,20
2017-12-14T06:48:30.651Z,20
2017-12-14T06:49:30.908Z,20
2017-12-14T06:50:30.895Z,28
2017-12-14T06:51:31.177Z,36
2017-12-14T06:52:31.390Z,44
2017-12-14T06:53:30.569Z,48
2017-12-14T06:54:30.540Z,44
2017-12-14T06:55:31.064Z,52
2017-12-14T06:56:30.506Z,48
2017-12-14T06:57:30.762Z,48
2017-12-14T06:58:30.760Z,40
2017-12-14T06:59:30.456Z,52
2017-12-14T07:00:30.445Z,56
2017-12-14T07:01:30.416Z,76
2017-12-14T07:02:30.947Z,92
2017-12-14T07:03:30.656Z,100
2017-12-14T07:04:30.367Z,108
2017-12-14T07:05:30.624Z,96
2017-12-14T07:06:30.346Z,104
2017-12-14T07:07:30.597Z,120
2017-12-14T07:08:30.319Z,112
2017-12-14T07:09:30.304Z,148
2017-12-14T07:10:30.803Z,160
2017-12-14T07:11:30.242Z,212
2017-12-14T07:12:30.773Z,236
2017-12-14T07:13:30.756Z,236
2017-12-14T07:14:30.193Z,224
2017-12-14T07:15:30.449Z,200
2017-12-14T07:16:30.705Z,292
2017-12-14T07:17:30.418Z,324
2017-12-14T07:18:30.395Z,324
2017-12-14T07:19:30.648Z,264
2017-12-14T07:20:30.370Z,312
2017-12-14T07:21:30.641Z,348
2017-12-14T07:22:30.598Z,432
2017-12-14T07:23:30.310Z,444
2017-12-14T07:24:30.289Z,460
2017-12-14T07:25:30.273Z,524
2017-12-14T07:26:30.252Z,536
2017-12-14T07:27:30.239Z,560
2017-12-14T07:28:30.541Z,612
2017-12-14T07:29:29.948Z,828
2017-12-14T07:30:29.917Z,1048
2017-12-14T07:31:30.462Z,1260
2017-12-14T07:32:30.205Z,1348
2017-12-14T07:33:30.143Z,1084
2017-12-14T07:34:30.385Z,824
2017-12-14T07:35:30.366Z,544
2017-12-14T07:36:30.101Z,836
2017-12-14T07:37:30.058Z,920
2017-12-14T07:38:30.043Z,912
2017-12-14T07:39:30.032Z,796
2017-12-14T07:40:29.736Z,592
2017-12-14T07:41:29.997Z,472
2017-12-14T07:42:29.992Z,440
2017-12-14T07:43:29.954Z,368
2017-12-14T07:44:29.961Z,340
2017-12-14T07:45:30.200Z,324
2017-12-14T07:46:29.905Z,400
2017-12-14T07:47:29.889Z,392
2017-12-14T07:48:29.611Z,384
2017-12-14T07:49:29.861Z,552
2017-12-14T07:50:29.855Z,744
2017-12-14T07:51:29.542Z,752
2017-12-14T07:52:29.540Z,820
2017-12-14T07:53:29.786Z,836
2017-12-14T07:54:29.511Z,848
2017-12-14T07:55:30.299Z,844
2017-12-14T07:56:29.731Z,808
2017-12-14T07:57:29.732Z,772
2017-12-14T07:58:29.696Z,676
2017-12-14T07:59:29.408Z,792
2017-12-14T08:00:29.389Z,880
2017-12-14T08:01:29.656Z,1020
2017-12-14T08:02:29.352Z,788
2017-12-14T08:03:29.338Z,764
2017-12-14T08:04:29.586Z,824
2017-12-14T08:05:29.848Z,1048
2017-12-14T08:06:30.098Z,1048
2017-12-14T08:07:29.810Z,652
2017-12-14T08:08:29.525Z,920
2017-12-14T08:09:29.778Z,1044
2017-12-14T08:10:29.212Z,1232
2017-12-14T08:11:30.037Z,2568
2017-12-14T08:12:29.194Z,2900
2017-12-14T08:13:29.711Z,2368
2017-12-14T08:14:29.429Z,2228
2017-12-14T08:15:29.123Z,1452
2017-12-14T08:16:29.381Z,1184
2017-12-14T08:17:29.111Z,952
2017-12-14T08:18:29.071Z,996
2017-12-14T08:19:29.597Z,944
2017-12-14T08:20:29.040Z,880
2017-12-14T08:21:29.582Z,928
2017-12-14T08:22:29.544Z,988
2017-12-14T08:23:28.986Z,1288
2017-12-14T08:24:29.527Z,1284
2017-12-14T08:25:28.951Z,1200
2017-12-14T08:26:29.207Z,1032
2017-12-14T08:27:28.925Z,1028
2017-12-14T08:28:28.899Z,1296
2017-12-14T08:29:29.154Z,1284
2017-12-14T08:30:29.200Z,1028
2017-12-14T08:31:29.665Z,692
2017-12-14T08:32:28.838Z,984
2017-12-14T08:33:29.626Z,1100
2017-12-14T08:34:28.801Z,1524
2017-12-14T08:35:28.776Z,1768
2017-12-14T08:36:28.774Z,2036
2017-12-14T08:37:29.015Z,2708
2017-12-14T08:38:29.263Z,2812
2017-12-14T08:39:28.979Z,3356
2017-12-14T08:40:28.694Z,3240
2017-12-14T08:41:28.672Z,2488
2017-12-14T08:42:28.934Z,2224
2017-12-14T08:43:28.907Z,2028
2017-12-14T08:44:29.186Z,1900
2017-12-14T08:45:29.144Z,1952
2017-12-14T08:46:28.857Z,2240
2017-12-14T08:47:29.119Z,2720
2017-12-14T08:48:28.558Z,2912
2017-12-14T08:49:29.079Z,2040
2017-12-14T08:50:29.072Z,1616
2017-12-14T08:51:29.040Z,1312
2017-12-14T08:52:28.478Z,1516
2017-12-14T08:53:29.003Z,1412
2017-12-14T08:54:28.990Z,2068
2017-12-14T08:55:28.425Z,1764
2017-12-14T08:56:28.953Z,1444
2017-12-14T08:57:28.937Z,1492
2017-12-14T08:58:28.959Z,2084
2017-12-14T08:59:28.367Z,1796
2017-12-14T09:00:29.158Z,2112
2017-12-14T09:01:28.600Z,2608
2017-12-14T09:02:28.583Z,3384
2017-12-14T09:03:28.561Z,4656
2017-12-14T09:04:28.546Z,5168
2017-12-14T09:05:28.526Z,5408
2017-12-14T09:06:28.259Z,5560
2017-12-14T09:07:28.249Z,3796
2017-12-14T09:08:28.206Z,3220
2017-12-14T09:09:28.455Z,3196
2017-12-14T09:10:28.167Z,3180
2017-12-14T09:11:28.444Z,2472
2017-12-14T09:12:28.401Z,1856
2017-12-14T09:13:28.538Z,1796
2017-12-14T09:14:28.872Z,1696
2017-12-14T09:15:28.352Z,1840
2017-12-14T09:16:28.335Z,2152
2017-12-14T09:17:28.611Z,2360
2017-12-14T09:18:28.321Z,2344
2017-12-14T09:19:28.286Z,2008
2017-12-14T09:20:28.271Z,1920
2017-12-14T09:21:28.246Z,2176
2017-12-14T09:22:27.960Z,2420
2017-12-14T09:23:28.486Z,2076
2017-12-14T09:24:28.210Z,1944
2017-12-14T09:25:28.202Z,2104
2017-12-14T09:26:27.887Z,1948
2017-12-14T09:27:28.413Z,2056
2017-12-14T09:28:28.455Z,2240
2017-12-14T09:29:27.862Z,2216
2017-12-14T09:30:28.365Z,2180
2017-12-14T09:31:27.807Z,2176
2017-12-14T09:32:28.062Z,2024
2017-12-14T09:33:28.318Z,1504
2017-12-14T09:34:28.306Z,1488
2017-12-14T09:35:27.740Z,1552
2017-12-14T09:36:27.718Z,1532
2017-12-14T09:37:28.244Z,1572
2017-12-14T09:38:27.957Z,1628
2017-12-14T09:39:27.669Z,1696
2017-12-14T09:40:28.212Z,1592
2017-12-14T09:41:27.636Z,1488
2017-12-14T09:42:28.169Z,1588
2017-12-14T09:43:27.882Z,1664
2017-12-14T09:44:28.134Z,1744
2017-12-14T09:45:27.832Z,1692
2017-12-14T09:46:28.123Z,1524
2017-12-14T09:47:28.072Z,1772
2017-12-14T09:48:27.512Z,1888
2017-12-14T09:49:28.062Z,1568
2017-12-14T09:50:27.479Z,1848
2017-12-14T09:51:27.458Z,1896
2017-12-14T09:52:28.282Z,1992
2017-12-14T09:53:27.709Z,1884
2017-12-14T09:54:27.679Z,1824
2017-12-14T09:55:27.673Z,2460
2017-12-14T09:56:27.917Z,3072
2017-12-14T09:57:28.171Z,2872
2017-12-14T09:58:27.904Z,2868
2017-12-14T09:59:27.598Z,3044
2017-12-14T10:00:27.309Z,2672
2017-12-14T10:01:27.552Z,2596
2017-12-14T10:02:27.268Z,2656
2017-12-14T10:03:27.531Z,2396
2017-12-14T10:04:27.779Z,2628
2017-12-14T10:05:27.491Z,2652
2017-12-14T10:06:27.474Z,2608
2017-12-14T10:07:27.720Z,2700
2017-12-14T10:08:27.455Z,3168
2017-12-14T10:09:27.696Z,2844
2017-12-14T10:10:27.128Z,3276
2017-12-14T10:11:27.384Z,3828
2017-12-14T10:12:27.095Z,3816
2017-12-14T10:13:27.348Z,3276
2017-12-14T10:14:27.055Z,3052
2017-12-14T10:15:27.058Z,3848
2017-12-14T10:16:27.301Z,5268
2017-12-14T10:17:27.287Z,5408
2017-12-14T10:18:27.298Z,5748
2017-12-14T10:19:27.249Z,4968
2017-12-14T10:20:27.246Z,4932
2017-12-14T10:21:27.218Z,5608
2017-12-14T10:22:27.194Z,5832
2017-12-14T10:23:27.716Z,4648
2017-12-14T10:24:27.178Z,4224
2017-12-14T10:25:27.144Z,4760
2017-12-14T10:26:27.135Z,4468
2017-12-14T10:27:27.374Z,4236
2017-12-14T10:28:27.373Z,4336
2017-12-14T10:29:27.124Z,4280
2017-12-14T10:30:27.060Z,3252
2017-12-14T10:31:27.644Z,3964
2017-12-14T10:32:27.296Z,3044
2017-12-14T10:33:27.027Z,3088
2017-12-14T10:34:26.733Z,3460
2017-12-14T10:35:27.251Z,3664
2017-12-14T10:36:26.963Z,4268
2017-12-14T10:37:26.957Z,4220
2017-12-14T10:38:26.650Z,4868
2017-12-14T10:39:26.926Z,4304
2017-12-14T10:40:26.888Z,3456
2017-12-14T10:41:26.870Z,4004
2017-12-14T10:42:26.893Z,3248
2017-12-14T10:43:27.117Z,4260
2017-12-14T10:44:27.107Z,3664
2017-12-14T10:45:27.341Z,3244
2017-12-14T10:46:26.783Z,2972
2017-12-14T10:47:27.340Z,3420
2017-12-14T10:48:26.776Z,4040
2017-12-14T10:49:27.012Z,3628
2017-12-14T10:50:27.008Z,3768
2017-12-14T10:51:26.431Z,4172
2017-12-14T10:52:26.695Z,4560
2017-12-14T10:53:26.982Z,4160
2017-12-14T10:54:26.919Z,3372
2017-12-14T10:55:26.647Z,3588
2017-12-14T10:56:26.362Z,3260
2017-12-14T10:57:26.610Z,3476
2017-12-14T10:58:26.318Z,3600
2017-12-14T10:59:26.297Z,2920
2017-12-14T11:00:26.555Z,3152
2017-12-14T11:01:26.825Z,3340
2017-12-14T11:02:26.520Z,2692
2017-12-14T11:03:26.502Z,3048
2017-12-14T11:04:26.214Z,3560
2017-12-14T11:05:26.519Z,3388
2017-12-14T11:06:26.181Z,3268
2017-12-14T11:07:26.708Z,2972
2017-12-14T11:08:26.437Z,3720
2017-12-14T11:09:26.138Z,4664
2017-12-14T11:10:26.115Z,4836
2017-12-14T11:11:26.100Z,4604
2017-12-14T11:12:26.357Z,4476
2017-12-14T11:13:26.655Z,4668
2017-12-14T11:14:26.591Z,4444
2017-12-14T11:15:26.320Z,3344
2017-12-14T11:16:26.289Z,3092
2017-12-14T11:17:26.269Z,3548
2017-12-14T11:18:26.006Z,3576
2017-12-14T11:19:25.970Z,3836
2017-12-14T11:20:25.947Z,2832
2017-12-14T11:21:25.955Z,3356
2017-12-14T11:22:26.195Z,3580
2017-12-14T11:23:26.171Z,3904
2017-12-14T11:24:26.172Z,5172
2017-12-14T11:25:26.135Z,5192
2017-12-14T11:26:25.851Z,3436
2017-12-14T11:27:26.412Z,3108
2017-12-14T11:28:26.088Z,2648
2017-12-14T11:29:26.081Z,3484
2017-12-14T11:30:26.062Z,3656
2017-12-14T11:31:26.037Z,2896
2017-12-14T11:32:26.025Z,2536
2017-12-14T11:33:26.019Z,3520
2017-12-14T11:34:26.011Z,3632
2017-12-14T11:35:25.977Z,3528
2017-12-14T11:36:25.708Z,3464
2017-12-14T11:37:26.234Z,4060
2017-12-14T11:38:26.243Z,2964
2017-12-14T11:39:25.636Z,3364
2017-12-14T11:40:25.904Z,2708
2017-12-14T11:41:25.611Z,2348
2017-12-14T11:42:26.133Z,2308
2017-12-14T11:43:25.842Z,2064
2017-12-14T11:44:26.133Z,1980
2017-12-14T11:45:25.831Z,1696
2017-12-14T11:46:25.798Z,1524
2017-12-14T11:47:25.523Z,1688
2017-12-14T11:48:26.306Z,1860
2017-12-14T11:49:26.024Z,1864
2017-12-14T11:50:25.728Z,2328
2017-12-14T11:51:25.711Z,1828
2017-12-14T11:52:25.704Z,1900
2017-12-14T11:53:25.405Z,1628
2017-12-14T11:54:25.662Z,1472
2017-12-14T11:55:25.685Z,1904
2017-12-14T11:56:25.626Z,2596
2017-12-14T11:57:25.440Z,1864
2017-12-14T11:58:25.610Z,1892
2017-12-14T11:59:25.577Z,2888
2017-12-14T12:00:25.566Z,2896
2017-12-14T12:01:25.547Z,3872
2017-12-14T12:02:25.255Z,4480
2017-12-14T12:03:25.264Z,4624
2017-12-14T12:04:25.496Z,4560
2017-12-14T12:05:25.766Z,3924
2017-12-14T12:06:26.023Z,3256
2017-12-14T12:07:25.445Z,3300
2017-12-14T12:08:25.702Z,4124
2017-12-14T12:09:25.140Z,4240
2017-12-14T12:10:26.016Z,3968
2017-12-14T12:11:25.387Z,3836
2017-12-14T12:12:25.089Z,3788
2017-12-14T12:13:25.620Z,3440
2017-12-14T12:14:25.891Z,3244
2017-12-14T12:15:25.385Z,4316
2017-12-14T12:16:25.646Z,6048
2017-12-14T12:17:25.309Z,5360
2017-12-14T12:18:25.548Z,5224
2017-12-14T12:19:25.532Z,4740
2017-12-14T12:20:25.230Z,4704
2017-12-14T12:21:24.944Z,4404
2017-12-14T12:22:25.201Z,4468
2017-12-14T12:23:25.195Z,5264
2017-12-14T12:24:25.441Z,4388
2017-12-14T12:25:25.699Z,4348
2017-12-14T12:26:25.178Z,4264
2017-12-14T12:27:25.395Z,4452
2017-12-14T12:28:25.127Z,3152
2017-12-14T12:29:25.112Z,2392
2017-12-14T12:30:25.075Z,2316
2017-12-14T12:31:24.791Z,3244
2017-12-14T12:32:24.885Z,3724
2017-12-14T12:33:24.751Z,3744
2017-12-14T12:34:25.051Z,3240
2017-12-14T12:35:25.005Z,2460
2017-12-14T12:36:25.248Z,2028
2017-12-14T12:37:24.962Z,1756
2017-12-14T12:38:24.673Z,1696
2017-12-14T12:39:24.924Z,1472
2017-12-14T12:40:24.637Z,1056
2017-12-14T12:41:24.910Z,928
2017-12-14T12:42:24.808Z,852
2017-12-14T12:43:24.614Z,976
2017-12-14T12:44:24.844Z,896
2017-12-14T12:45:24.850Z,932
2017-12-14T12:46:24.549Z,1096
2017-12-14T12:47:24.523Z,1120
2017-12-14T12:48:25.113Z,1140
2017-12-14T12:49:24.494Z,1372
2017-12-14T12:50:24.481Z,1396
2017-12-14T12:51:24.477Z,1704
2017-12-14T12:52:24.766Z,1656
2017-12-14T12:53:24.978Z,1684
2017-12-14T12:54:24.691Z,1616
2017-12-14T12:55:24.679Z,1364
2017-12-14T12:56:24.385Z,1660
2017-12-14T12:57:24.923Z,1876
2017-12-14T12:58:24.644Z,1784
2017-12-14T12:59:24.601Z,1468
2017-12-14T13:00:24.589Z,1692
2017-12-14T13:01:24.566Z,1376
2017-12-14T13:02:24.565Z,1872
2017-12-14T13:03:24.560Z,1696
2017-12-14T13:04:24.523Z,1656
2017-12-14T13:05:24.506Z,1512
2017-12-14T13:06:24.784Z,2292
2017-12-14T13:07:24.498Z,2016
2017-12-14T13:08:24.459Z,1992
2017-12-14T13:09:24.172Z,1836
2017-12-14T13:10:24.966Z,1804
2017-12-14T13:11:24.420Z,2908
2017-12-14T13:12:24.938Z,3016
2017-12-14T13:13:24.645Z,3720
2017-12-14T13:14:24.130Z,3648
2017-12-14T13:15:24.340Z,3048
2017-12-14T13:16:24.050Z,3052
2017-12-14T13:17:24.851Z,4412
2017-12-14T13:18:24.566Z,5188
2017-12-14T13:19:24.279Z,3276
2017-12-14T13:20:24.008Z,2760
2017-12-14T13:21:24.522Z,3068
2017-12-14T13:22:23.970Z,2136
2017-12-14T13:23:23.954Z,2888
2017-12-14T13:24:24.278Z,2372
2017-12-14T13:25:23.912Z,2256
2017-12-14T13:26:23.898Z,2220
2017-12-14T13:27:24.146Z,2468
2017-12-14T13:28:23.921Z,2336
2017-12-14T13:29:24.109Z,2160
2017-12-14T13:30:24.123Z,1928
2017-12-14T13:31:23.811Z,1928
2017-12-14T13:32:24.087Z,2148
2017-12-14T13:33:24.055Z,1712
2017-12-14T13:34:24.033Z,1584
2017-12-14T13:35:24.038Z,1748
2017-12-14T13:36:24.000Z,1848
2017-12-14T13:37:23.996Z,1684
2017-12-14T13:38:23.981Z,1976
2017-12-14T13:39:23.681Z,2296
2017-12-14T13:40:23.933Z,2072
2017-12-14T13:41:23.922Z,1840
2017-12-14T13:42:24.183Z,1480
2017-12-14T13:43:23.886Z,1416
2017-12-14T13:44:23.875Z,1432
2017-12-14T13:45:23.909Z,1476
2017-12-14T13:46:23.852Z,1544
2017-12-14T13:47:23.826Z,1664
2017-12-14T13:48:23.533Z,1720
2017-12-14T13:49:23.786Z,1760
2017-12-14T13:50:24.059Z,1796
2017-12-14T13:51:24.336Z,1776
2017-12-14T13:52:23.736Z,1780
2017-12-14T13:53:23.448Z,1648
2017-12-14T13:54:23.433Z,1420
2017-12-14T13:55:23.442Z,1164
2017-12-14T13:56:23.668Z,1264
2017-12-14T13:57:23.656Z,1544
2017-12-14T13:58:23.370Z,1584
2017-12-14T13:59:23.896Z,1332
2017-12-14T14:00:23.333Z,1160
2017-12-14T14:01:23.332Z,1192
2017-12-14T14:02:23.586Z,1120